Time;durP1;ratioP1;P1;durP2;ratioP2;P2;SDS_P1;SDS_P2;PMS_P1;PMS_P2;Temp;Humidity;BMP_temperature;BMP_pressure;BME280_temperature;BME280_humidity;BME280_pressure;Samples;Min_cycle;Max_cycle;Signal;HPM_P1;HPM_P2
2022/04/12 00:00:53;;;;;;;3.88;1.73;;;;;;;;;;6253400;23;20020;-86
2022/04/12 00:03:20;;;;;;;6.00;1.65;;;;;;;;;;6252856;22;20043;-86
2022/04/12 00:05:48;;;;;;;2.80;1.33;;;;;;;;;;6251794;23;20020;-86
2022/04/12 00:08:17;;;;;;;5.47;1.63;;;;;;;;;;6216630;23;20329;-86
2022/04/12 00:10:45;;;;;;;6.22;1.80;;;;;;;;;;6253597;22;20050;-85
2022/04/12 00:13:12;;;;;;;3.55;1.67;;;;;;;;;;6254957;22;20020;-85
2022/04/12 00:15:40;;;;;;;4.75;1.40;;;;;;;;;;6272648;23;20019;-84
2022/04/12 00:20:54;;;;;;;4.10;1.60;;;;;;;;;;6264085;23;20075;-86
2022/04/12 00:23:22;;;;;;;5.03;1.60;;;;;;;;;;6241542;23;20019;-86
2022/04/12 00:25:50;;;;;;;7.20;2.03;;;;;;;;;;6252199;22;20020;-86
2022/04/12 00:28:18;;;;;;;5.93;1.70;;;;;;;;;;6253099;22;20012;-86
2022/04/12 00:30:46;;;;;;;6.95;2.08;;;;;;;;;;6253639;22;20024;-85
2022/04/12 00:33:15;;;;;;;7.30;2.03;;;;;;;;;;6253170;23;20020;-86
2022/04/12 00:35:42;;;;;;;7.18;2.20;;;;;;;;;;6253208;23;20506;-86
2022/04/12 00:38:17;;;;;;;7.13;1.48;;;;;;;;;;6254819;22;20024;-86
2022/04/12 00:40:47;;;;;;;3.80;1.50;;;;;;;;;;6255633;23;20023;-87
2022/04/12 00:43:19;;;;;;;4.63;1.60;;;;;;;;;;6218438;23;20024;-87
2022/04/12 00:45:47;;;;;;;5.22;1.65;;;;;;;;;;6256505;22;20078;-85
2022/04/12 00:48:14;;;;;;;4.75;1.85;;;;;;;;;;6256100;22;20089;-84
2022/04/12 00:50:43;;;;;;;7.03;1.83;;;;;;;;;;6256447;22;20016;-85
2022/04/12 00:53:12;;;;;;;3.42;1.45;;;;;;;;;;6256742;22;20020;-84
2022/04/12 00:55:40;;;;;;;3.53;1.50;;;;;;;;;;6256144;22;20411;-85
2022/04/12 00:58:08;;;;;;;5.03;1.50;;;;;;;;;;6256382;22;20012;-85
2022/04/12 01:00:37;;;;;;;3.85;1.83;;;;;;;;;;6257151;23;20040;-85
2022/04/12 01:03:04;;;;;;;5.40;1.60;;;;;;;;;;6246644;23;20447;-86
2022/04/12 01:05:32;;;;;;;12.15;1.77;;;;;;;;;;6235924;23;20016;-85
2022/04/12 01:08:01;;;;;;;9.15;1.33;;;;;;;;;;6279009;23;20012;-86
2022/04/12 01:10:31;;;;;;;9.80;1.70;;;;;;;;;;6279091;23;20026;-85
2022/04/12 01:12:58;;;;;;;2.92;1.38;;;;;;;;;;6279299;22;20016;-85
2022/04/12 01:15:28;;;;;;;4.97;1.70;;;;;;;;;;6278299;22;20332;-86
2022/04/12 01:17:57;;;;;;;3.70;1.80;;;;;;;;;;6276334;22;20087;-85
2022/04/12 01:20:29;;;;;;;8.25;2.05;;;;;;;;;;6255096;23;20066;-85
2022/04/12 01:23:08;;;;;;;5.90;1.83;;;;;;;;;;6255305;22;20024;-86
2022/04/12 01:25:38;;;;;;;5.32;1.63;;;;;;;;;;6253102;23;20509;-86
2022/04/12 01:28:08;;;;;;;4.75;2.17;;;;;;;;;;6254455;22;20332;-86
2022/04/12 01:30:36;;;;;;;4.43;1.67;;;;;;;;;;6253518;23;20390;-86
2022/04/12 01:33:04;;;;;;;2.67;1.58;;;;;;;;;;6254487;22;20023;-87
2022/04/12 01:35:33;;;;;;;8.20;1.73;;;;;;;;;;6243630;23;20046;-84
2022/04/12 01:38:01;;;;;;;5.07;2.58;;;;;;;;;;6253674;23;20447;-85
2022/04/12 01:40:28;;;;;;;6.22;1.88;;;;;;;;;;6255306;22;20012;-85
2022/04/12 01:42:56;;;;;;;4.07;1.90;;;;;;;;;;6254996;22;20094;-84
2022/04/12 01:45:24;;;;;;;6.60;1.80;;;;;;;;;;6254579;23;20047;-87
2022/04/12 01:47:52;;;;;;;5.40;1.95;;;;;;;;;;6254310;22;20391;-86
2022/04/12 01:50:20;;;;;;;8.23;2.03;;;;;;;;;;6254437;22;20016;-87
2022/04/12 01:52:49;;;;;;;7.43;1.92;;;;;;;;;;6242343;23;20030;-87
2022/04/12 01:55:16;;;;;;;3.35;1.38;;;;;;;;;;6252780;23;20127;-87
2022/04/12 01:57:45;;;;;;;6.03;1.35;;;;;;;;;;6252488;23;20016;-87
2022/04/12 02:00:12;;;;;;;2.90;1.65;;;;;;;;;;6254150;23;20039;-87
2022/04/12 02:02:40;;;;;;;4.55;1.63;;;;;;;;;;6254443;22;20085;-87
2022/04/12 02:05:09;;;;;;;3.28;1.77;;;;;;;;;;6254177;22;20020;-88
2022/04/12 02:07:36;;;;;;;6.05;1.90;;;;;;;;;;6227749;23;20016;-87
2022/04/12 02:10:05;;;;;;;11.88;2.05;;;;;;;;;;6252670;23;20023;-87
2022/04/12 02:12:32;;;;;;;5.18;2.10;;;;;;;;;;6254072;22;20043;-88
2022/04/12 02:15:00;;;;;;;8.05;1.98;;;;;;;;;;6252262;23;20462;-88
2022/04/12 02:17:28;;;;;;;4.70;1.83;;;;;;;;;;6252354;23;20016;-88
2022/04/12 02:19:56;;;;;;;8.02;2.00;;;;;;;;;;6252098;23;20022;-87
2022/04/12 02:22:24;;;;;;;4.60;2.13;;;;;;;;;;6252269;23;20016;-88
2022/04/12 02:24:52;;;;;;;3.67;1.42;;;;;;;;;;6253352;22;20035;-87
2022/04/12 02:27:20;;;;;;;2.90;1.30;;;;;;;;;;6252552;23;20044;-88
2022/04/12 02:29:48;;;;;;;5.00;1.70;;;;;;;;;;6241809;23;20013;-88
2022/04/12 02:32:16;;;;;;;8.25;1.90;;;;;;;;;;6227878;23;20440;-88
2022/04/12 02:34:44;;;;;;;4.47;2.03;;;;;;;;;;6227283;23;20070;-86
2022/04/12 02:37:12;;;;;;;4.05;1.50;;;;;;;;;;6253902;23;20016;-86
2022/04/12 02:39:40;;;;;;;4.55;2.08;;;;;;;;;;6253255;22;20020;-86
2022/04/12 02:42:08;;;;;;;5.43;2.03;;;;;;;;;;6252142;23;20020;-86
2022/04/12 02:44:36;;;;;;;3.85;1.05;;;;;;;;;;6253534;23;20020;-86
2022/04/12 02:47:04;;;;;;;6.70;2.00;;;;;;;;;;6251881;23;20747;-86
2022/04/12 02:49:32;;;;;;;2.08;1.02;;;;;;;;;;6253530;22;20296;-86
2022/04/12 02:52:00;;;;;;;7.60;2.22;;;;;;;;;;6253336;23;20027;-87
2022/04/12 02:54:28;;;;;;;5.32;2.28;;;;;;;;;;6253100;23;20020;-87
2022/04/12 02:56:57;;;;;;;7.00;1.98;;;;;;;;;;6252715;23;20026;-87
2022/04/12 02:59:24;;;;;;;10.30;2.40;;;;;;;;;;6253483;22;20043;-86
2022/04/12 03:01:52;;;;;;;5.85;2.35;;;;;;;;;;6252308;23;20026;-87
2022/04/12 03:04:20;;;;;;;6.93;2.05;;;;;;;;;;6252202;23;20107;-87
2022/04/12 03:06:48;;;;;;;4.00;2.20;;;;;;;;;;6253518;23;20044;-87
2022/04/12 03:09:18;;;;;;;6.35;1.85;;;;;;;;;;6253377;22;20099;-87
2022/04/12 03:11:46;;;;;;;5.60;2.15;;;;;;;;;;6252508;23;20047;-86
2022/04/12 03:14:14;;;;;;;5.78;2.10;;;;;;;;;;6253849;23;20610;-87
2022/04/12 03:16:42;;;;;;;4.03;2.15;;;;;;;;;;6253984;22;20094;-87
2022/04/12 03:19:10;;;;;;;4.78;2.20;;;;;;;;;;6249872;22;20346;-87
2022/04/12 03:21:38;;;;;;;4.15;1.83;;;;;;;;;;6253010;23;20078;-87
2022/04/12 03:24:06;;;;;;;5.95;3.03;;;;;;;;;;6253247;23;20039;-86
2022/04/12 03:26:35;;;;;;;4.07;2.03;;;;;;;;;;6241407;23;20082;-87
2022/04/12 03:29:02;;;;;;;11.02;2.63;;;;;;;;;;6253456;22;20062;-87
2022/04/12 03:31:30;;;;;;;6.45;2.05;;;;;;;;;;6226881;23;20027;-87
2022/04/12 03:33:58;;;;;;;6.28;2.20;;;;;;;;;;6253265;22;20099;-87
2022/04/12 03:36:26;;;;;;;11.10;2.85;;;;;;;;;;6253026;22;20093;-87
2022/04/12 03:38:54;;;;;;;8.55;2.22;;;;;;;;;;6253279;22;20023;-87
2022/04/12 03:41:23;;;;;;;4.07;2.10;;;;;;;;;;6253640;22;20099;-88
2022/04/12 03:43:51;;;;;;;4.60;2.40;;;;;;;;;;6253170;22;20024;-88
2022/04/12 03:46:19;;;;;;;3.78;2.00;;;;;;;;;;6252214;23;20024;-89
2022/04/12 03:48:46;;;;;;;5.05;2.03;;;;;;;;;;6252993;22;20024;-88
2022/04/12 03:51:18;;;;;;;6.30;2.30;;;;;;;;;;6251570;23;20027;-88
2022/04/12 03:53:46;;;;;;;7.13;2.67;;;;;;;;;;6252763;22;20047;-89
2022/04/12 03:56:14;;;;;;;4.50;2.05;;;;;;;;;;6252843;23;20016;-89
2022/04/12 03:58:42;;;;;;;6.50;2.35;;;;;;;;;;6251062;23;20042;-88
2022/04/12 04:01:10;;;;;;;4.70;2.28;;;;;;;;;;6251570;23;20434;-88
2022/04/12 04:03:38;;;;;;;7.25;2.03;;;;;;;;;;6226856;23;20340;-87
2022/04/12 04:06:06;;;;;;;7.47;3.25;;;;;;;;;;6251005;23;20020;-87
2022/04/12 04:08:34;;;;;;;6.05;2.80;;;;;;;;;;6251265;23;20102;-87
2022/04/12 04:11:02;;;;;;;3.72;1.55;;;;;;;;;;6252946;23;20043;-87
2022/04/12 04:13:36;;;;;;;7.40;2.85;;;;;;;;;;6251356;23;20455;-87
2022/04/12 04:16:05;;;;;;;5.38;2.40;;;;;;;;;;6253342;22;20024;-88
2022/04/12 04:18:33;;;;;;;5.18;2.30;;;;;;;;;;6253011;22;20122;-87
2022/04/12 04:21:01;;;;;;;5.30;2.40;;;;;;;;;;6252925;22;20019;-88
2022/04/12 04:23:28;;;;;;;8.70;2.95;;;;;;;;;;6251610;23;20097;-88
2022/04/12 04:26:24;;;;;;;5.75;2.58;;;;;;;;;;6251766;23;20023;-88
2022/04/12 04:28:58;;;;;;;5.68;2.00;;;;;;;;;;6251697;23;20016;-87
2022/04/12 04:31:26;;;;;;;4.97;2.45;;;;;;;;;;6251595;23;20016;-88
2022/04/12 04:33:58;;;;;;;3.97;2.20;;;;;;;;;;6216896;23;20397;-88
2022/04/12 04:36:27;;;;;;;4.82;2.42;;;;;;;;;;6252695;23;20101;-86
2022/04/12 04:38:54;;;;;;;8.20;2.53;;;;;;;;;;6252633;22;20020;-86
2022/04/12 04:41:22;;;;;;;4.15;2.00;;;;;;;;;;6251458;23;20026;-86
2022/04/12 04:43:50;;;;;;;9.35;2.40;;;;;;;;;;6251310;23;20398;-86
2022/04/12 04:46:18;;;;;;;5.90;2.75;;;;;;;;;;6251553;23;20044;-87
2022/04/12 04:48:46;;;;;;;5.88;2.70;;;;;;;;;;6251181;23;20023;-88
2022/04/12 04:51:14;;;;;;;4.85;2.63;;;;;;;;;;6252776;23;20508;-87
2022/04/12 04:53:45;;;;;;;9.68;2.60;;;;;;;;;;6240962;23;20091;-88
2022/04/12 04:56:12;;;;;;;5.25;2.50;;;;;;;;;;6216419;23;20333;-88
2022/04/12 04:58:40;;;;;;;8.88;2.13;;;;;;;;;;6252678;23;20110;-87
2022/04/12 05:01:08;;;;;;;6.90;2.67;;;;;;;;;;6252415;23;20085;-88
2022/04/12 05:03:36;;;;;;;6.47;2.78;;;;;;;;;;6252846;22;20483;-88
2022/04/12 05:06:04;;;;;;;4.68;2.50;;;;;;;;;;6226022;23;20027;-87
2022/04/12 05:08:32;;;;;;;4.70;2.30;;;;;;;;;;6252576;22;20027;-88
2022/04/12 05:11:00;;;;;;;4.10;1.77;;;;;;;;;;6253073;22;20020;-88
2022/04/12 05:13:28;;;;;;;9.27;2.70;;;;;;;;;;6252568;23;20024;-79
2022/04/12 05:15:56;;;;;;;7.18;2.78;;;;;;;;;;6243059;22;20027;-79
2022/04/12 05:18:24;;;;;;;4.60;1.92;;;;;;;;;;6251225;23;20043;-79
2022/04/12 05:20:52;;;;;;;5.03;2.67;;;;;;;;;;6254699;22;20579;-80
2022/04/12 05:23:20;;;;;;;7.82;2.95;;;;;;;;;;6254785;22;20020;-79
2022/04/12 05:25:48;;;;;;;5.25;1.95;;;;;;;;;;6255299;23;20030;-79
2022/04/12 05:28:17;;;;;;;5.68;2.72;;;;;;;;;;6242557;23;20552;-79
2022/04/12 05:30:44;;;;;;;5.80;2.65;;;;;;;;;;6254526;22;20087;-79
2022/04/12 05:33:12;;;;;;;7.57;3.05;;;;;;;;;;6254094;23;20074;-79
2022/04/12 05:35:40;;;;;;;5.85;2.67;;;;;;;;;;6254294;22;20020;-79
2022/04/12 05:38:08;;;;;;;5.38;2.53;;;;;;;;;;6253832;22;20167;-79
2022/04/12 05:40:36;;;;;;;10.52;3.17;;;;;;;;;;6254322;22;20008;-79
2022/04/12 05:43:04;;;;;;;5.55;2.97;;;;;;;;;;6253585;23;20027;-79
2022/04/12 05:45:32;;;;;;;5.95;2.40;;;;;;;;;;6254055;22;20024;-79
2022/04/12 05:48:00;;;;;;;5.45;2.85;;;;;;;;;;6253674;23;20020;-79
2022/04/12 05:50:28;;;;;;;5.32;2.70;;;;;;;;;;6242426;23;20047;-79
2022/04/12 05:52:57;;;;;;;9.65;2.70;;;;;;;;;;6253994;23;20815;-79
2022/04/12 05:55:26;;;;;;;6.90;3.13;;;;;;;;;;6252853;23;20016;-79
2022/04/12 05:57:55;;;;;;;6.78;3.33;;;;;;;;;;6254201;22;20019;-79
2022/04/12 06:00:23;;;;;;;9.77;3.25;;;;;;;;;;6254274;23;20096;-79
2022/04/12 06:02:52;;;;;;;4.72;2.53;;;;;;;;;;6252415;23;20020;-79
2022/04/12 06:05:22;;;;;;;10.02;2.70;;;;;;;;;;6228250;23;20024;-79
2022/04/12 06:07:51;;;;;;;8.43;2.83;;;;;;;;;;6253928;22;20023;-79
2022/04/12 06:10:20;;;;;;;8.07;2.75;;;;;;;;;;6252772;23;20069;-79
2022/04/12 06:12:50;;;;;;;4.40;2.30;;;;;;;;;;6254650;22;20099;-79
2022/04/12 06:15:21;;;;;;;6.10;2.35;;;;;;;;;;6245356;22;20030;-81
2022/04/12 06:17:48;;;;;;;5.63;2.28;;;;;;;;;;6256434;22;20753;-80
2022/04/12 06:20:17;;;;;;;10.10;2.53;;;;;;;;;;6257017;23;20016;-80
2022/04/12 06:22:46;;;;;;;5.55;2.80;;;;;;;;;;6256777;22;20020;-83
2022/04/12 06:25:19;;;;;;;6.00;2.35;;;;;;;;;;6257326;23;20069;-82
2022/04/12 06:27:50;;;;;;;5.43;2.35;;;;;;;;;;6255759;22;20036;-83
2022/04/12 06:30:24;;;;;;;5.82;2.90;;;;;;;;;;6257301;22;20020;-84
2022/04/12 06:32:52;;;;;;;5.20;2.42;;;;;;;;;;6215216;23;20070;-85
2022/04/12 06:35:21;;;;;;;5.95;2.85;;;;;;;;;;6255830;23;20016;-82
2022/04/12 06:37:52;;;;;;;4.47;2.30;;;;;;;;;;6256821;22;20019;-81
2022/04/12 06:40:21;;;;;;;2.92;1.65;;;;;;;;;;6248030;23;20343;-81
2022/04/12 06:42:49;;;;;;;9.93;3.22;;;;;;;;;;6245966;22;20051;-81
2022/04/12 06:45:16;;;;;;;4.38;2.50;;;;;;;;;;6256233;23;20743;-82
2022/04/12 06:47:52;;;;;;;8.48;2.78;;;;;;;;;;6254906;23;20443;-82
2022/04/12 06:50:20;;;;;;;6.03;2.60;;;;;;;;;;6254008;23;20022;-81
2022/04/12 06:52:48;;;;;;;4.20;2.40;;;;;;;;;;6255178;22;20047;-82
2022/04/12 06:55:16;;;;;;;4.53;2.10;;;;;;;;;;6255495;22;20380;-82
2022/04/12 06:57:44;;;;;;;11.85;3.00;;;;;;;;;;6255087;22;20020;-82
2022/04/12 07:00:13;;;;;;;6.53;2.85;;;;;;;;;;6218638;23;20020;-84
2022/04/12 07:02:41;;;;;;;7.47;2.58;;;;;;;;;;6255011;22;20024;-82
2022/04/12 07:05:09;;;;;;;12.38;2.70;;;;;;;;;;6254480;23;20024;-83
2022/04/12 07:07:38;;;;;;;7.03;2.72;;;;;;;;;;6255255;22;20016;-82
2022/04/12 07:10:09;;;;;;;6.82;2.80;;;;;;;;;;6255888;22;20012;-82
2022/04/12 07:12:39;;;;;;;6.07;2.50;;;;;;;;;;6253523;23;20028;-81
2022/04/12 07:15:07;;;;;;;4.90;2.30;;;;;;;;;;6255492;23;20463;-82
2022/04/12 07:17:34;;;;;;;4.70;2.33;;;;;;;;;;6253061;23;20020;-84
2022/04/12 07:20:04;;;;;;;7.15;2.60;;;;;;;;;;6243392;23;20099;-83
2022/04/12 07:22:30;;;;;;;4.38;2.53;;;;;;;;;;6254874;22;20016;-83
2022/04/12 07:24:59;;;;;;;5.80;2.78;;;;;;;;;;6252815;23;20047;-83
2022/04/12 07:27:26;;;;;;;5.05;2.78;;;;;;;;;;6251636;23;20020;-85
2022/04/12 07:29:56;;;;;;;5.40;1.77;;;;;;;;;;6241854;23;20027;-84
2022/04/12 07:32:24;;;;;;;4.80;1.45;;;;;;;;;;6242813;23;20035;-83
2022/04/12 07:34:52;;;;;;;7.13;2.78;;;;;;;;;;6254358;23;20031;-84
2022/04/12 07:37:20;;;;;;;3.97;2.25;;;;;;;;;;6253690;23;20028;-84
2022/04/12 07:39:48;;;;;;;4.15;2.10;;;;;;;;;;6253952;23;20024;-84
2022/04/12 07:42:16;;;;;;;5.80;2.20;;;;;;;;;;6251821;23;20020;-84
2022/04/12 07:44:44;;;;;;;4.60;2.30;;;;;;;;;;6217420;23;20027;-82
2022/04/12 07:47:12;;;;;;;5.97;2.92;;;;;;;;;;6253176;23;20175;-82
2022/04/12 07:49:41;;;;;;;4.88;2.22;;;;;;;;;;6252203;23;20038;-83
2022/04/12 07:52:08;;;;;;;6.85;2.67;;;;;;;;;;6253648;22;20086;-82
2022/04/12 07:54:36;;;;;;;4.97;2.92;;;;;;;;;;6252276;23;20020;-82
2022/04/12 07:57:04;;;;;;;6.43;2.15;;;;;;;;;;6252794;23;20024;-83
2022/04/12 07:59:32;;;;;;;7.10;3.65;;;;;;;;;;6253650;22;20065;-82
2022/04/12 08:02:00;;;;;;;4.53;2.03;;;;;;;;;;6251976;23;20424;-81
2022/04/12 08:04:28;;;;;;;7.57;2.72;;;;;;;;;;6252913;23;20020;-82
2022/04/12 08:06:56;;;;;;;7.72;2.97;;;;;;;;;;6252659;23;20126;-82
2022/04/12 08:09:24;;;;;;;4.05;1.75;;;;;;;;;;6251361;23;20016;-83
2022/04/12 08:11:52;;;;;;;5.65;2.25;;;;;;;;;;6253148;23;20426;-82
2022/04/12 08:14:20;;;;;;;4.10;2.50;;;;;;;;;;6253835;23;20054;-83
2022/04/12 08:16:48;;;;;;;7.22;2.70;;;;;;;;;;6253199;23;20074;-83
2022/04/12 08:19:16;;;;;;;4.90;2.15;;;;;;;;;;6248708;22;20439;-81
2022/04/12 08:21:44;;;;;;;6.80;2.92;;;;;;;;;;6253276;22;20091;-82
2022/04/12 08:24:12;;;;;;;6.43;2.83;;;;;;;;;;6254061;23;20074;-83
2022/04/12 08:26:40;;;;;;;10.43;2.70;;;;;;;;;;6244346;23;20119;-82
2022/04/12 08:29:08;;;;;;;4.82;2.60;;;;;;;;;;6242986;23;20365;-82
2022/04/12 08:31:36;;;;;;;6.88;2.88;;;;;;;;;;6260894;22;20016;-82
2022/04/12 08:34:05;;;;;;;5.43;2.40;;;;;;;;;;6260639;23;20030;-82
2022/04/12 08:36:34;;;;;;;7.10;2.80;;;;;;;;;;6256960;22;20043;-81
2022/04/12 08:39:03;;;;;;;4.80;2.55;;;;;;;;;;6254895;23;20077;-81
2022/04/12 08:41:33;;;;;;;4.93;2.47;;;;;;;;;;6256174;23;20451;-81
2022/04/12 08:44:00;;;;;;;5.78;2.83;;;;;;;;;;6256189;22;20042;-80
2022/04/12 08:46:28;;;;;;;5.50;2.70;;;;;;;;;;6255579;22;20355;-81
2022/04/12 08:48:57;;;;;;;5.25;2.88;;;;;;;;;;6256955;22;20020;-81
2022/04/12 08:51:27;;;;;;;4.78;2.45;;;;;;;;;;6254023;22;20086;-80
2022/04/12 08:53:57;;;;;;;2.85;1.40;;;;;;;;;;6254778;22;20402;-80
2022/04/12 08:56:26;;;;;;;5.68;2.90;;;;;;;;;;6256439;22;20048;-81
2022/04/12 08:58:55;;;;;;;6.25;2.80;;;;;;;;;;6256208;23;20026;-81
2022/04/12 09:01:39;;;;;;;6.43;3.05;;;;;;;;;;6256290;22;20023;-80
2022/04/12 09:04:07;;;;;;;11.82;3.17;;;;;;;;;;6258641;22;20340;-83
2022/04/12 09:06:35;;;;;;;10.93;3.17;;;;;;;;;;6257424;22;20020;-78
2022/04/12 09:09:12;;;;;;;4.45;2.13;;;;;;;;;;6247347;22;20031;-80
2022/04/12 09:11:41;;;;;;;8.80;2.92;;;;;;;;;;6255814;22;20020;-79
2022/04/12 09:14:16;;;;;;;9.50;3.10;;;;;;;;;;6256917;22;20455;-80
2022/04/12 09:16:45;;;;;;;6.35;3.03;;;;;;;;;;6256571;23;20066;-80
2022/04/12 09:19:12;;;;;;;6.00;3.40;;;;;;;;;;6255790;23;20019;-79
2022/04/12 09:21:47;;;;;;;8.35;3.00;;;;;;;;;;6254715;22;20515;-79
2022/04/12 09:24:21;;;;;;;7.57;3.67;;;;;;;;;;6255107;23;20052;-80
2022/04/12 09:26:57;;;;;;;6.07;3.00;;;;;;;;;;6255872;23;20047;-80
2022/04/12 09:29:27;;;;;;;7.05;3.70;;;;;;;;;;6255835;23;20024;-79
2022/04/12 09:31:58;;;;;;;12.70;3.67;;;;;;;;;;6244129;22;20428;-80
2022/04/12 09:34:26;;;;;;;9.05;3.85;;;;;;;;;;6253566;22;20031;-81
2022/04/12 09:37:45;;;;;;;6.03;3.22;;;;;;;;;;6242577;23;20048;-80
2022/04/12 09:40:15;;;;;;;7.97;3.88;;;;;;;;;;6131604;23;20025;-79
2022/04/12 09:42:45;;;;;;;8.00;3.63;;;;;;;;;;6130415;23;20458;-79
2022/04/12 09:45:13;;;;;;;5.22;2.72;;;;;;;;;;6133009;23;20025;-83
2022/04/12 09:47:42;;;;;;;7.70;3.72;;;;;;;;;;6085892;23;20026;-83
2022/04/12 09:50:32;;;;;;;8.98;4.18;;;;;;;;;;6135353;23;20029;-82
2022/04/12 09:53:00;;;;;;;8.90;4.50;;;;;;;;;;6134451;23;20036;-84
2022/04/12 09:55:52;;;;;;;7.43;3.50;;;;;;;;;;6136422;23;20025;-84
2022/04/12 09:58:21;;;;;;;9.98;3.88;;;;;;;;;;6087330;23;20316;-83
2022/04/12 10:00:48;;;;;;;8.50;4.13;;;;;;;;;;6135981;23;20105;-82
2022/04/12 10:03:19;;;;;;;7.10;2.42;;;;;;;;;;6133346;23;20021;-82
2022/04/12 10:05:47;;;;;;;9.05;3.83;;;;;;;;;;6133519;23;20025;-80
2022/04/12 10:08:19;;;;;;;10.60;4.78;;;;;;;;;;6130954;23;20089;-81
2022/04/12 10:10:46;;;;;;;14.80;5.90;;;;;;;;;;6132795;23;20064;-82
2022/04/12 10:13:15;;;;;;;11.07;3.80;;;;;;;;;;6135942;23;20029;-83
2022/04/12 10:15:44;;;;;;;10.60;5.03;;;;;;;;;;6188571;23;20107;-79
2022/04/12 10:18:15;;;;;;;8.95;3.92;;;;;;;;;;6252078;23;20055;-80
2022/04/12 10:20:43;;;;;;;9.50;4.47;;;;;;;;;;6253259;22;20012;-79
2022/04/12 10:23:22;;;;;;;8.50;3.88;;;;;;;;;;6252618;23;20020;-80
2022/04/12 10:25:52;;;;;;;12.80;5.22;;;;;;;;;;6253301;22;20030;-80
2022/04/12 10:28:22;;;;;;;7.88;3.85;;;;;;;;;;6251966;22;20521;-80
2022/04/12 10:30:51;;;;;;;13.90;4.65;;;;;;;;;;6249730;23;20016;-79
2022/04/12 10:33:24;;;;;;;9.90;4.43;;;;;;;;;;6251617;23;20079;-79
2022/04/12 10:35:54;;;;;;;9.02;4.70;;;;;;;;;;6252165;22;20620;-80
2022/04/12 10:38:36;;;;;;;11.30;4.50;;;;;;;;;;6240245;23;20024;-78
2022/04/12 10:41:32;;;;;;;9.90;4.55;;;;;;;;;;6253452;22;20016;-80
2022/04/12 10:44:00;;;;;;;9.40;4.00;;;;;;;;;;6249742;22;20027;-79
2022/04/12 10:46:47;;;;;;;13.55;4.68;;;;;;;;;;6250334;23;20123;-79
2022/04/12 10:49:19;;;;;;;11.45;4.60;;;;;;;;;;6244884;23;20476;-80
2022/04/12 10:51:55;;;;;;;9.15;4.55;;;;;;;;;;6240734;23;20070;-78
2022/04/12 10:54:29;;;;;;;9.07;4.22;;;;;;;;;;6249011;23;20078;-78
2022/04/12 10:57:19;;;;;;;8.23;3.70;;;;;;;;;;6238993;23;20024;-78
2022/04/12 11:00:04;;;;;;;10.68;4.07;;;;;;;;;;6254569;22;20012;-80
2022/04/12 11:02:43;;;;;;;9.40;4.15;;;;;;;;;;6254090;22;20066;-79
2022/04/12 11:05:37;;;;;;;10.18;3.97;;;;;;;;;;6254937;23;20019;-80
2022/04/12 11:08:13;;;;;;;7.85;4.20;;;;;;;;;;6250640;23;20431;-79
2022/04/12 11:10:52;;;;;;;8.68;4.25;;;;;;;;;;6250287;23;20101;-79
2022/04/12 11:13:22;;;;;;;8.70;3.33;;;;;;;;;;6252561;22;20043;-79
2022/04/12 11:16:01;;;;;;;9.43;4.47;;;;;;;;;;6251783;22;20024;-79
2022/04/12 11:18:50;;;;;;;9.35;3.83;;;;;;;;;;6250178;22;20030;-79
2022/04/12 11:21:20;;;;;;;9.55;4.85;;;;;;;;;;6225457;23;20016;-79
2022/04/12 11:23:57;;;;;;;6.80;3.88;;;;;;;;;;6252291;22;20020;-79
2022/04/12 11:26:38;;;;;;;8.77;4.28;;;;;;;;;;6250833;23;20024;-79
2022/04/12 11:29:17;;;;;;;9.52;3.65;;;;;;;;;;6249258;23;20511;-78
2022/04/12 11:31:53;;;;;;;8.93;3.83;;;;;;;;;;6248631;23;20043;-78
2022/04/12 11:34:25;;;;;;;7.38;4.40;;;;;;;;;;6252165;22;20039;-79
2022/04/12 11:36:57;;;;;;;9.82;4.60;;;;;;;;;;6255018;22;20020;-80
2022/04/12 11:39:27;;;;;;;8.48;3.67;;;;;;;;;;6254873;22;20019;-80
2022/04/12 11:42:00;;;;;;;9.77;4.35;;;;;;;;;;6254625;22;20023;-79
2022/04/12 11:44:27;;;;;;;8.35;4.05;;;;;;;;;;6254127;22;20459;-79
2022/04/12 11:46:57;;;;;;;11.30;4.63;;;;;;;;;;6253952;22;20016;-81
2022/04/12 11:49:30;;;;;;;10.20;4.47;;;;;;;;;;6253914;22;20346;-81
2022/04/12 11:52:00;;;;;;;8.30;4.38;;;;;;;;;;6254284;22;20058;-81
2022/04/12 11:54:34;;;;;;;12.38;4.35;;;;;;;;;;6254880;22;20028;-81
2022/04/12 11:57:04;;;;;;;8.63;3.78;;;;;;;;;;6253800;22;20091;-80
2022/04/12 11:59:34;;;;;;;9.73;3.65;;;;;;;;;;6254320;22;20047;-83
2022/04/12 12:02:03;;;;;;;12.02;4.40;;;;;;;;;;6254195;23;20012;-83
2022/04/12 12:04:35;;;;;;;8.88;4.28;;;;;;;;;;6256335;22;20016;-83
2022/04/12 12:07:05;;;;;;;11.02;4.53;;;;;;;;;;6256965;22;20019;-83
2022/04/12 12:09:34;;;;;;;9.32;4.47;;;;;;;;;;6257709;22;20074;-83
2022/04/12 12:12:05;;;;;;;9.40;4.45;;;;;;;;;;6256204;22;20012;-83
2022/04/12 12:14:34;;;;;;;6.72;4.15;;;;;;;;;;6255239;22;20039;-82
2022/04/12 12:17:03;;;;;;;9.43;4.25;;;;;;;;;;6255719;22;20062;-82
2022/04/12 12:19:33;;;;;;;7.10;3.22;;;;;;;;;;6243208;23;20016;-82
2022/04/12 12:22:02;;;;;;;13.43;4.68;;;;;;;;;;6254269;22;20024;-82
2022/04/12 12:24:35;;;;;;;9.80;4.93;;;;;;;;;;6254570;22;20070;-82
2022/04/12 12:27:05;;;;;;;11.88;4.60;;;;;;;;;;6254968;23;20030;-83
2022/04/12 12:29:38;;;;;;;8.68;4.20;;;;;;;;;;6256243;22;20020;-83
2022/04/12 12:32:05;;;;;;;9.70;4.30;;;;;;;;;;6255293;23;20012;-82
2022/04/12 12:34:34;;;;;;;9.65;4.50;;;;;;;;;;6256214;23;20501;-83
2022/04/12 12:37:08;;;;;;;9.32;4.55;;;;;;;;;;6220116;23;20028;-84
2022/04/12 12:39:41;;;;;;;11.13;3.97;;;;;;;;;;6257124;22;20043;-82
2022/04/12 12:42:09;;;;;;;7.97;4.65;;;;;;;;;;6256032;22;20023;-82
2022/04/12 12:44:37;;;;;;;9.82;5.00;;;;;;;;;;6255693;23;20020;-82
2022/04/12 12:47:06;;;;;;;10.18;4.78;;;;;;;;;;6256174;22;20012;-82
2022/04/12 12:49:36;;;;;;;9.15;4.03;;;;;;;;;;6246191;23;20465;-82
2022/04/12 12:52:11;;;;;;;11.05;5.10;;;;;;;;;;6257661;22;20078;-83
2022/04/12 12:54:39;;;;;;;9.20;4.55;;;;;;;;;;6258127;22;20020;-83
2022/04/12 12:57:08;;;;;;;8.20;3.92;;;;;;;;;;6257283;22;20020;-82
2022/04/12 12:59:37;;;;;;;11.73;5.63;;;;;;;;;;6255604;23;20602;-84
2022/04/12 13:02:10;;;;;;;8.70;4.20;;;;;;;;;;6256449;22;20039;-82
2022/04/12 13:04:52;;;;;;;12.65;5.45;;;;;;;;;;6256543;22;20016;-83
2022/04/12 13:07:19;;;;;;;12.32;5.40;;;;;;;;;;6256854;22;20020;-80
2022/04/12 13:09:48;;;;;;;8.10;3.85;;;;;;;;;;6255609;23;20099;-80
2022/04/12 13:12:17;;;;;;;10.52;4.90;;;;;;;;;;6255389;23;20016;-80
2022/04/12 13:14:45;;;;;;;13.75;4.93;;;;;;;;;;6254957;22;20020;-80
2022/04/12 13:17:15;;;;;;;12.73;5.22;;;;;;;;;;6254662;23;20020;-80
2022/04/12 13:19:44;;;;;;;10.57;4.13;;;;;;;;;;6246406;22;20027;-79
2022/04/12 13:22:12;;;;;;;10.15;4.57;;;;;;;;;;6249752;23;20020;-80
2022/04/12 13:24:39;;;;;;;10.60;4.78;;;;;;;;;;6253944;22;20340;-80
2022/04/12 13:27:08;;;;;;;11.15;5.13;;;;;;;;;;6252847;23;20020;-81
2022/04/12 13:29:36;;;;;;;9.18;4.32;;;;;;;;;;6257487;22;20023;-82
2022/04/12 13:32:04;;;;;;;9.00;4.55;;;;;;;;;;6254768;23;20436;-82
2022/04/12 13:34:34;;;;;;;8.82;4.60;;;;;;;;;;6256584;23;20020;-83
2022/04/12 13:37:03;;;;;;;8.43;4.10;;;;;;;;;;6244663;23;20030;-83
2022/04/12 13:39:32;;;;;;;15.65;4.68;;;;;;;;;;6256586;22;20040;-84
2022/04/12 13:42:01;;;;;;;12.75;5.72;;;;;;;;;;6258169;22;20012;-84
2022/04/12 13:44:29;;;;;;;9.40;4.80;;;;;;;;;;6259128;22;20455;-82
2022/04/12 13:47:02;;;;;;;9.50;4.47;;;;;;;;;;6256993;23;20023;-82
2022/04/12 13:49:30;;;;;;;12.10;4.97;;;;;;;;;;6233464;23;20024;-83
2022/04/12 13:51:58;;;;;;;8.73;4.90;;;;;;;;;;6258389;22;20443;-84
2022/04/12 13:54:26;;;;;;;9.93;4.80;;;;;;;;;;6256677;23;20031;-84
2022/04/12 13:56:58;;;;;;;9.63;4.30;;;;;;;;;;6255774;22;20154;-82
2022/04/12 13:59:25;;;;;;;9.70;4.75;;;;;;;;;;6256671;22;20016;-84
2022/04/12 14:01:54;;;;;;;10.68;4.78;;;;;;;;;;6229151;23;20012;-84
2022/04/12 14:04:22;;;;;;;9.57;4.63;;;;;;;;;;6256090;22;20161;-83
2022/04/12 14:06:50;;;;;;;11.02;4.75;;;;;;;;;;6255677;23;20024;-84
2022/04/12 14:09:18;;;;;;;10.40;4.90;;;;;;;;;;6254591;23;20046;-83
2022/04/12 14:11:47;;;;;;;11.10;4.95;;;;;;;;;;6253157;23;20078;-84
2022/04/12 14:14:15;;;;;;;10.05;4.78;;;;;;;;;;6257301;22;20016;-84
2022/04/12 14:16:45;;;;;;;8.48;4.70;;;;;;;;;;6257192;22;20016;-83
2022/04/12 14:19:14;;;;;;;9.15;4.28;;;;;;;;;;6256300;23;20036;-85
2022/04/12 14:21:42;;;;;;;8.80;4.30;;;;;;;;;;6256736;22;20059;-84
2022/04/12 14:24:10;;;;;;;8.18;4.30;;;;;;;;;;6257444;22;20016;-85
2022/04/12 14:26:39;;;;;;;8.80;3.38;;;;;;;;;;6253981;23;20024;-81
2022/04/12 14:29:14;;;;;;;11.00;4.82;;;;;;;;;;6256450;22;20020;-83
2022/04/12 14:31:43;;;;;;;9.27;3.63;;;;;;;;;;6256563;22;20474;-83
2022/04/12 14:34:12;;;;;;;7.25;3.63;;;;;;;;;;6256573;23;20024;-83
2022/04/12 14:36:40;;;;;;;10.15;4.90;;;;;;;;;;6257717;22;20363;-83
2022/04/12 14:39:07;;;;;;;13.13;4.68;;;;;;;;;;6257685;22;20016;-83
2022/04/12 14:41:36;;;;;;;10.20;4.70;;;;;;;;;;6258087;23;20016;-83
2022/04/12 14:44:05;;;;;;;8.20;4.72;;;;;;;;;;6256578;23;20439;-83
2022/04/12 14:46:31;;;;;;;8.40;4.35;;;;;;;;;;6257557;22;20050;-83
2022/04/12 14:48:59;;;;;;;10.68;5.10;;;;;;;;;;6259441;23;20026;-84
2022/04/12 14:51:28;;;;;;;10.88;4.97;;;;;;;;;;6259051;23;20016;-85
2022/04/12 14:53:55;;;;;;;5.47;2.53;;;;;;;;;;6257177;23;20012;-83
2022/04/12 14:56:22;;;;;;;8.60;4.72;;;;;;;;;;6260009;23;20467;-83
2022/04/12 14:58:50;;;;;;;8.65;3.33;;;;;;;;;;6255857;23;20028;-83